Time;durP1;ratioP1;P1;durP2;ratioP2;P2;SDS_P1;SDS_P2;PMS_P1;PMS_P2;Temp;Humidity;BMP_temperature;BMP_pressure;BME280_temperature;BME280_humidity;BME280_pressure;Samples;Min_cycle;Max_cycle;Signal;HPM_P1;HPM_P2
2023/08/18 00:02:15;;;;;;;;;;;;;;;26.58;46.02;99471.47;5073876;28;19918;-78
2023/08/18 00:04:41;;;;;;;;;;;;;;;26.56;44.03;99471.75;5074004;28;19912;-78
2023/08/18 00:07:06;;;;;;;;;;;;;;;26.55;44.27;99472.03;5073474;28;20400;-79
2023/08/18 00:09:31;;;;;;;;;;;;;;;26.47;45.61;99473.47;5055339;28;19916;-78
2023/08/18 00:11:56;;;;;;;;;;;;;;;26.42;46.30;99484.34;5055473;28;20353;-78
2023/08/18 00:14:22;;;;;;;;;;;;;;;26.39;46.20;99484.09;5073154;28;19927;-78
2023/08/18 00:16:47;;;;;;;;;;;;;;;26.38;45.68;99482.47;5055148;28;19916;-78
2023/08/18 00:19:12;;;;;;;;;;;;;;;26.39;45.74;99490.31;5055341;28;19912;-77
2023/08/18 00:21:37;;;;;;;;;;;;;;;26.42;47.21;99488.94;5055303;28;19916;-78
2023/08/18 00:24:03;;;;;;;;;;;;;;;26.42;45.72;99488.94;5054944;28;19936;-77
2023/08/18 00:26:28;;;;;;;;;;;;;;;26.37;46.55;99484.38;5054967;28;19932;-78
2023/08/18 00:28:53;;;;;;;;;;;;;;;26.33;47.46;99487.94;5054879;28;19999;-78
2023/08/18 00:31:18;;;;;;;;;;;;;;;26.35;45.90;99488.47;5055003;28;19912;-77
2023/08/18 00:33:44;;;;;;;;;;;;;;;26.32;45.88;99487.09;5055206;28;19913;-77
2023/08/18 00:36:09;;;;;;;;;;;;;;;26.26;46.19;99488.22;5054910;28;20387;-78
2023/08/18 00:38:34;;;;;;;;;;;;;;;26.23;46.67;99481.47;5054934;28;19919;-78
2023/08/18 00:40:59;;;;;;;;;;;;;;;26.21;46.79;99483.66;5054889;28;19912;-78
2023/08/18 00:43:25;;;;;;;;;;;;;;;26.19;47.00;99482.31;5072602;28;19919;-78
2023/08/18 00:45:52;;;;;;;;;;;;;;;26.17;46.59;99482.59;5054566;28;19935;-79
2023/08/18 00:48:18;;;;;;;;;;;;;;;26.14;48.13;99487.78;5054543;28;19939;-78
2023/08/18 00:50:44;;;;;;;;;;;;;;;26.04;47.35;99477.81;5054498;28;20401;-76
2023/08/18 00:53:10;;;;;;;;;;;;;;;26.02;48.34;99481.91;5072439;28;19918;-78
2023/08/18 00:55:35;;;;;;;;;;;;;;;26.03;47.79;99483.53;5072278;28;19991;-78
2023/08/18 00:58:02;;;;;;;;;;;;;;;25.99;47.64;99477.84;5072388;28;19916;-78
2023/08/18 01:00:27;;;;;;;;;;;;;;;25.90;46.80;99488.44;5054290;28;19924;-78
2023/08/18 01:02:53;;;;;;;;;;;;;;;25.86;48.28;99478.47;5054440;28;20454;-78
2023/08/18 01:05:18;;;;;;;;;;;;;;;25.82;47.33;99480.09;5054333;28;19912;-78
2023/08/18 01:07:44;;;;;;;;;;;;;;;25.82;48.26;99480.91;5054423;28;19912;-78
2023/08/18 01:10:10;;;;;;;;;;;;;;;25.80;48.32;99474.16;5054305;28;19916;-78
2023/08/18 01:12:45;;;;;;;;;;;;;;;25.75;48.58;99474.19;5054408;28;19919;-78
2023/08/18 01:15:18;;;;;;;;;;;;;;;25.72;47.90;99472.84;5072436;28;20314;-77
2023/08/18 01:17:46;;;;;;;;;;;;;;;25.76;48.92;99471.22;5055230;28;19919;-77
2023/08/18 01:20:12;;;;;;;;;;;;;;;25.75;47.46;99472.31;5058282;28;19999;-78
2023/08/18 01:22:39;;;;;;;;;;;;;;;25.71;47.93;99473.94;5073400;28;19967;-77
2023/08/18 01:25:05;;;;;;;;;;;;;;;25.68;48.15;99469.09;5072814;28;19916;-77
2023/08/18 01:27:31;;;;;;;;;;;;;;;25.61;48.25;99479.38;5072718;28;20215;-77
2023/08/18 01:29:56;;;;;;;;;;;;;;;25.62;49.36;99478.28;5072046;28;20313;-78
2023/08/18 01:32:25;;;;;;;;;;;;;;;25.57;48.98;99473.72;5072154;28;20329;-78
2023/08/18 01:34:52;;;;;;;;;;;;;;;25.54;48.94;99478.88;5054277;28;19912;-78
2023/08/18 01:37:17;;;;;;;;;;;;;;;25.58;48.77;99483.44;5053838;28;20347;-78
2023/08/18 01:39:43;;;;;;;;;;;;;;;25.62;49.19;99479.09;5053895;28;19912;-79
2023/08/18 01:42:09;;;;;;;;;;;;;;;25.58;49.50;99472.63;5071835;28;19912;-78
2023/08/18 01:44:34;;;;;;;;;;;;;;;25.57;49.54;99479.13;5071743;28;19913;-78
2023/08/18 01:47:00;;;;;;;;;;;;;;;25.53;50.08;99474.56;5071925;28;19912;-78
2023/08/18 01:49:25;;;;;;;;;;;;;;;25.50;50.07;99477.81;5071844;28;19920;-79
2023/08/18 01:51:50;;;;;;;;;;;;;;;25.45;49.71;99475.13;5072135;28;19991;-78
2023/08/18 01:54:16;;;;;;;;;;;;;;;25.38;48.58;99475.44;5053984;28;19917;-78
2023/08/18 01:56:41;;;;;;;;;;;;;;;25.28;50.85;99476.28;5071827;28;19920;-79
2023/08/18 01:59:06;;;;;;;;;;;;;;;25.24;51.54;99471.69;5071998;28;19916;-78
2023/08/18 02:01:31;;;;;;;;;;;;;;;25.20;49.97;99478.72;5071813;28;19921;-79
2023/08/18 02:03:57;;;;;;;;;;;;;;;25.20;49.11;99476.81;5072014;28;20385;-78
2023/08/18 02:06:22;;;;;;;;;;;;;;;25.23;49.51;99486.28;5054071;28;19920;-78
2023/08/18 02:08:47;;;;;;;;;;;;;;;25.17;51.09;99474.66;5075315;28;19920;-78
2023/08/18 02:11:13;;;;;;;;;;;;;;;25.16;49.86;99472.25;5075935;28;19916;-79
2023/08/18 02:13:39;;;;;;;;;;;;;;;25.13;49.04;99465.50;5075924;28;20396;-79
2023/08/18 02:16:04;;;;;;;;;;;;;;;25.10;49.88;99468.75;5076024;28;19916;-78
2023/08/18 02:18:32;;;;;;;;;;;;;;;25.14;50.45;99460.91;5075688;28;20393;-79
2023/08/18 02:20:58;;;;;;;;;;;;;;;25.14;49.34;99467.13;5075809;28;19909;-77
2023/08/18 02:23:23;;;;;;;;;;;;;;;25.18;49.14;99465.47;5075604;28;20006;-78
2023/08/18 02:25:49;;;;;;;;;;;;;;;25.18;49.96;99464.66;5075648;28;20019;-78
2023/08/18 02:28:15;;;;;;;;;;;;;;;25.17;50.14;99471.16;5057703;28;19966;-78
2023/08/18 02:30:40;;;;;;;;;;;;;;;25.11;49.75;99473.06;5075574;28;19917;-78
2023/08/18 02:33:05;;;;;;;;;;;;;;;25.05;49.30;99465.25;5075615;28;19913;-78
2023/08/18 02:35:30;;;;;;;;;;;;;;;24.98;50.62;99468.25;5057618;28;19913;-78
2023/08/18 02:37:56;;;;;;;;;;;;;;;24.90;49.31;99475.00;5075565;28;19913;-79
2023/08/18 02:40:21;;;;;;;;;;;;;;;24.88;49.96;99466.34;5075550;28;19913;-78
2023/08/18 02:42:46;;;;;;;;;;;;;;;24.83;49.76;99470.94;5057485;28;19919;-78
2023/08/18 02:45:12;;;;;;;;;;;;;;;24.78;49.50;99468.25;5075091;28;20308;-78
2023/08/18 02:47:38;;;;;;;;;;;;;;;24.74;50.04;99468.00;5057446;28;19916;-79
2023/08/18 02:50:04;;;;;;;;;;;;;;;24.70;50.07;99464.22;5074970;28;19920;-78
2023/08/18 02:52:30;;;;;;;;;;;;;;;24.71;49.63;99466.66;5074879;28;20298;-79
2023/08/18 02:54:55;;;;;;;;;;;;;;;24.70;49.25;99462.34;5056834;28;19919;-78
2023/08/18 02:57:20;;;;;;;;;;;;;;;24.70;49.61;99465.03;5074832;28;20458;-78
2023/08/18 02:59:45;;;;;;;;;;;;;;;24.70;48.91;99458.81;5074008;28;19928;-79
2023/08/18 03:02:11;;;;;;;;;;;;;;;24.70;49.22;99464.22;5073248;28;19912;-79
2023/08/18 03:04:37;;;;;;;;;;;;;;;24.68;49.38;99461.78;5055326;28;19955;-79
2023/08/18 03:07:02;;;;;;;;;;;;;;;24.66;49.73;99461.25;5073730;28;20008;-77
2023/08/18 03:09:27;;;;;;;;;;;;;;;24.62;49.93;99468.28;5074345;28;19960;-78
2023/08/18 03:11:53;;;;;;;;;;;;;;;24.63;50.13;99469.09;5074037;28;19913;-78
2023/08/18 03:14:18;;;;;;;;;;;;;;;24.60;50.60;99473.16;5055599;28;19912;-77
2023/08/18 03:16:43;;;;;;;;;;;;;;;24.58;50.25;99477.19;5073638;28;19912;-76
2023/08/18 03:19:09;;;;;;;;;;;;;;;24.55;49.24;99469.66;5073031;28;19991;-77
2023/08/18 03:21:34;;;;;;;;;;;;;;;24.54;49.70;99471.53;5073535;28;20382;-77
2023/08/18 03:24:00;;;;;;;;;;;;;;;24.53;49.50;99474.50;5074163;28;19971;-78
2023/08/18 03:26:25;;;;;;;;;;;;;;;24.57;49.29;99476.38;5073356;28;19917;-77
2023/08/18 03:28:52;;;;;;;;;;;;;;;24.55;50.17;99483.94;5073357;28;19983;-78
2023/08/18 03:31:18;;;;;;;;;;;;;;;24.49;49.92;99485.00;5073411;28;19916;-77
2023/08/18 03:33:43;;;;;;;;;;;;;;;24.47;49.66;99479.06;5073454;28;19999;-78
2023/08/18 03:36:08;;;;;;;;;;;;;;;24.45;49.41;99488.50;5073282;28;19913;-78
2023/08/18 03:38:33;;;;;;;;;;;;;;;24.45;50.19;99483.94;5073293;28;19935;-78
2023/08/18 03:41:00;;;;;;;;;;;;;;;24.40;48.77;99483.94;5073347;28;20356;-77
2023/08/18 03:43:25;;;;;;;;;;;;;;;24.38;49.41;99489.59;5073219;28;19916;-78
2023/08/18 03:45:50;;;;;;;;;;;;;;;24.42;49.36;99486.34;5073250;28;19912;-77
2023/08/18 03:48:15;;;;;;;;;;;;;;;24.44;49.94;99490.41;5072974;28;19912;-78
2023/08/18 03:50:41;;;;;;;;;;;;;;;24.40;49.44;99481.22;5054676;28;19923;-77
2023/08/18 03:53:06;;;;;;;;;;;;;;;24.42;49.15;99487.16;5072490;28;20389;-78
2023/08/18 03:55:31;;;;;;;;;;;;;;;24.45;49.07;99477.72;5072764;28;20379;-78
2023/08/18 03:57:56;;;;;;;;;;;;;;;24.48;49.94;99480.69;5072605;28;19916;-78
2023/08/18 04:00:22;;;;;;;;;;;;;;;24.52;48.72;99479.06;4990545;28;1824275;-78
2023/08/18 04:02:47;;;;;;;;;;;;;;;24.53;49.14;99491.50;5055452;28;19951;-78
2023/08/18 04:05:13;;;;;;;;;;;;;;;24.53;49.71;99486.13;5073665;28;20301;-78
2023/08/18 04:07:38;;;;;;;;;;;;;;;24.51;49.73;99485.53;5073516;28;19923;-77
2023/08/18 04:10:04;;;;;;;;;;;;;;;24.58;49.42;99488.81;5073123;28;20380;-79
2023/08/18 04:12:29;;;;;;;;;;;;;;;24.64;49.21;99482.31;5073460;28;19912;-79
2023/08/18 04:14:55;;;;;;;;;;;;;;;24.72;48.98;99489.06;5073148;28;19912;-76
2023/08/18 04:17:20;;;;;;;;;;;;;;;24.76;49.72;99486.63;5072917;28;19966;-78
2023/08/18 04:19:45;;;;;;;;;;;;;;;24.79;49.14;99484.19;5073247;28;20007;-78
2023/08/18 04:22:11;;;;;;;;;;;;;;;24.81;49.13;99490.13;5056516;28;19913;-78
2023/08/18 04:24:36;;;;;;;;;;;;;;;24.84;49.07;99492.28;5087968;28;19912;-79
2023/08/18 04:27:01;;;;;;;;;;;;;;;24.85;49.88;99496.59;5083989;28;19923;-77
2023/08/18 04:29:27;;;;;;;;;;;;;;;24.87;48.11;99490.94;5072662;28;20309;-78
2023/08/18 04:31:52;;;;;;;;;;;;;;;24.87;49.07;99488.22;5072912;28;20053;-78
2023/08/18 04:34:17;;;;;;;;;;;;;;;24.88;49.52;99493.34;5073333;28;19976;-78
2023/08/18 04:36:43;;;;;;;;;;;;;;;24.95;48.77;99483.09;5072865;28;19919;-78
2023/08/18 04:39:09;;;;;;;;;;;;;;;25.00;49.34;99490.41;5055186;28;19919;-78
2023/08/18 04:41:34;;;;;;;;;;;;;;;25.01;48.84;99483.91;5072621;28;19919;-78
2023/08/18 04:44:00;;;;;;;;;;;;;;;25.05;48.70;99478.75;5054762;28;19913;-78
2023/08/18 04:46:25;;;;;;;;;;;;;;;25.11;49.32;99489.28;5075216;28;19905;-78
2023/08/18 04:48:50;;;;;;;;;;;;;;;25.14;48.95;99486.03;5080672;28;19912;-78
2023/08/18 04:51:16;;;;;;;;;;;;;;;25.16;48.45;99489.25;5054834;28;19951;-78
2023/08/18 04:53:41;;;;;;;;;;;;;;;25.20;48.52;99493.03;5054706;28;19970;-78
2023/08/18 04:56:08;;;;;;;;;;;;;;;25.22;48.94;99495.47;5072549;28;19956;-78
2023/08/18 04:58:33;;;;;;;;;;;;;;;25.26;48.45;99489.22;5054630;28;19912;-78
2023/08/18 05:01:01;;;;;;;;;;;;;;;25.32;47.50;99492.75;5054338;28;19953;-78
2023/08/18 05:03:26;;;;;;;;;;;;;;;25.34;47.54;99490.59;5072543;28;19912;-78
2023/08/18 05:05:59;;;;;;;;;;;;;;;25.39;48.32;99482.47;5072335;28;20041;-78
2023/08/18 05:08:26;;;;;;;;;;;;;;;25.47;47.82;99489.19;5072526;28;19913;-79
2023/08/18 05:10:51;;;;;;;;;;;;;;;25.49;47.92;99487.81;5071899;28;19948;-78
2023/08/18 05:13:16;;;;;;;;;;;;;;;25.55;47.68;99494.81;5071959;28;20012;-79
2023/08/18 05:15:42;;;;;;;;;;;;;;;25.60;48.05;99489.38;5071800;28;19920;-78
2023/08/18 05:18:07;;;;;;;;;;;;;;;25.67;47.80;99491.81;5053881;28;20419;-78
2023/08/18 05:20:32;;;;;;;;;;;;;;;25.72;47.55;99489.09;5054132;28;19919;-78
2023/08/18 05:22:57;;;;;;;;;;;;;;;25.78;47.31;99482.56;5072297;28;19995;-78
2023/08/18 05:25:23;;;;;;;;;;;;;;;25.83;47.21;99489.84;5054299;28;20286;-79
2023/08/18 05:27:48;;;;;;;;;;;;;;;25.85;47.48;99491.19;5072308;28;19912;-80
2023/08/18 05:30:13;;;;;;;;;;;;;;;25.86;47.24;99490.09;5069315;28;19920;-78
2023/08/18 05:32:38;;;;;;;;;;;;;;;25.90;47.18;99491.16;5072053;28;19934;-78
2023/08/18 05:35:04;;;;;;;;;;;;;;;25.93;47.12;99487.06;5046999;28;19960;-76
2023/08/18 05:37:29;;;;;;;;;;;;;;;25.98;47.02;99479.72;5063113;28;19919;-77
2023/08/18 05:39:56;;;;;;;;;;;;;;;26.03;46.99;99487.03;5071721;28;19942;-78
2023/08/18 05:42:21;;;;;;;;;;;;;;;26.06;46.91;99485.66;5035514;28;20396;-79
2023/08/18 05:44:47;;;;;;;;;;;;;;;26.11;46.91;99493.75;5051754;28;19955;-77
2023/08/18 05:47:12;;;;;;;;;;;;;;;26.15;47.04;99490.19;5051556;28;19955;-76
2023/08/18 05:49:37;;;;;;;;;;;;;;;26.21;46.93;99486.38;5051465;28;20431;-77
2023/08/18 05:52:02;;;;;;;;;;;;;;;26.28;46.85;99484.16;5051667;28;20000;-78
2023/08/18 05:54:28;;;;;;;;;;;;;;;26.36;46.70;99488.16;5069012;28;20347;-78
2023/08/18 05:56:53;;;;;;;;;;;;;;;26.38;46.70;99496.81;5071512;28;20377;-78
2023/08/18 05:59:18;;;;;;;;;;;;;;;26.43;46.80;99498.69;5071559;28;19912;-79
2023/08/18 06:01:44;;;;;;;;;;;;;;;26.43;46.66;99491.38;5053565;28;19913;-79
2023/08/18 06:04:10;;;;;;;;;;;;;;;26.47;46.40;99502.44;5071770;28;20407;-78
2023/08/18 06:06:36;;;;;;;;;;;;;;;26.50;46.29;99499.97;5043124;28;19936;-78
2023/08/18 06:09:02;;;;;;;;;;;;;;;26.54;45.98;99490.19;5058881;28;20003;-78
2023/08/18 06:11:27;;;;;;;;;;;;;;;26.58;46.04;99490.44;5070150;28;20476;-78
2023/08/18 06:13:53;;;;;;;;;;;;;;;26.60;46.10;99490.94;5052091;28;19913;-78
2023/08/18 06:16:18;;;;;;;;;;;;;;;26.65;45.82;99498.22;5060115;28;19948;-78
2023/08/18 06:18:43;;;;;;;;;;;;;;;26.73;45.49;99500.31;5053268;28;20355;-78
2023/08/18 06:21:08;;;;;;;;;;;;;;;26.80;45.81;99501.63;5046185;28;19936;-78
2023/08/18 06:23:34;;;;;;;;;;;;;;;26.89;45.92;99499.91;5050988;28;19966;-78
2023/08/18 06:25:59;;;;;;;;;;;;;;;26.98;45.67;99510.16;5033572;28;19913;-78
2023/08/18 06:28:25;;;;;;;;;;;;;;;27.04;45.51;99507.09;5051179;28;20394;-77
2023/08/18 06:30:51;;;;;;;;;;;;;;;27.07;45.20;99503.00;5051289;28;19924;-79
2023/08/18 06:33:16;;;;;;;;;;;;;;;27.10;44.80;99505.94;5067905;28;19974;-78
2023/08/18 06:35:41;;;;;;;;;;;;;;;27.14;44.30;99503.47;5051659;28;19917;-79
2023/08/18 06:38:06;;;;;;;;;;;;;;;27.12;44.94;99503.75;5055875;28;19971;-78
2023/08/18 06:40:32;;;;;;;;;;;;;;;27.19;44.39;99508.84;5042815;28;19916;-78
2023/08/18 06:42:57;;;;;;;;;;;;;;;27.20;44.74;99505.03;5062746;28;19920;-77
2023/08/18 06:45:22;;;;;;;;;;;;;;;27.24;44.66;99489.81;5033640;28;19916;-78
2023/08/18 06:47:47;;;;;;;;;;;;;;;27.27;44.45;99496.56;5054967;28;19917;-78
2023/08/18 06:50:13;;;;;;;;;;;;;;;27.30;44.20;99495.97;5060294;28;19925;-78
2023/08/18 06:52:38;;;;;;;;;;;;;;;27.37;44.44;99491.81;5055361;28;19923;-77
2023/08/18 06:55:03;;;;;;;;;;;;;;;27.38;43.68;99496.13;5065255;28;20345;-78
2023/08/18 06:57:29;;;;;;;;;;;;;;;27.39;43.76;99496.94;5056896;28;20446;-78
2023/08/18 06:59:54;;;;;;;;;;;;;;;27.45;43.67;99501.22;5075001;28;19920;-78
2023/08/18 07:02:20;;;;;;;;;;;;;;;27.47;43.67;99493.59;5075106;28;19920;-78
2023/08/18 07:04:45;;;;;;;;;;;;;;;27.55;43.42;99495.69;5074845;28;19913;-77
2023/08/18 07:07:11;;;;;;;;;;;;;;;27.58;43.30;99499.72;5074401;28;19912;-78
2023/08/18 07:09:36;;;;;;;;;;;;;;;27.58;43.29;99505.16;5056564;28;19916;-78
2023/08/18 07:12:01;;;;;;;;;;;;;;;27.58;42.94;99511.38;5074530;28;20089;-78
2023/08/18 07:14:26;;;;;;;;;;;;;;;27.59;42.99;99517.59;5074502;28;20002;-77
2023/08/18 07:16:52;;;;;;;;;;;;;;;27.62;42.97;99509.72;5074637;28;19912;-78
2023/08/18 07:19:17;;;;;;;;;;;;;;;27.64;42.79;99509.44;5074530;28;19916;-78
2023/08/18 07:21:42;;;;;;;;;;;;;;;27.65;42.69;99500.19;5056850;28;20003;-79
2023/08/18 07:24:07;;;;;;;;;;;;;;;27.65;42.64;99509.16;5073043;28;20331;-78
2023/08/18 07:26:33;;;;;;;;;;;;;;;27.66;42.67;99510.75;5062259;28;19917;-79
2023/08/18 07:28:58;;;;;;;;;;;;;;;27.67;42.68;99509.66;5061676;28;20306;-79
2023/08/18 07:31:23;;;;;;;;;;;;;;;27.71;42.83;99507.19;5053968;28;19917;-78
2023/08/18 07:33:49;;;;;;;;;;;;;;;27.79;42.31;99512.75;5054142;28;19952;-76
2023/08/18 07:36:14;;;;;;;;;;;;;;;27.89;42.34;99519.94;5054392;28;20451;-78
2023/08/18 07:38:39;;;;;;;;;;;;;;;28.06;42.40;99519.44;5054282;28;19912;-78
2023/08/18 07:41:05;;;;;;;;;;;;;;;28.16;42.03;99517.38;5036214;28;19913;-78
2023/08/18 07:43:30;;;;;;;;;;;;;;;28.18;41.71;99508.94;5054048;28;19916;-76
2023/08/18 07:45:56;;;;;;;;;;;;;;;28.18;42.16;99514.38;5054692;28;20313;-78
2023/08/18 07:48:21;;;;;;;;;;;;;;;28.18;41.79;99503.50;5036977;28;19966;-77
2023/08/18 07:50:47;;;;;;;;;;;;;;;28.19;41.95;99505.13;5057332;28;19924;-79
2023/08/18 07:53:12;;;;;;;;;;;;;;;28.20;41.86;99500.50;5055087;28;19920;-76
2023/08/18 07:55:37;;;;;;;;;;;;;;;28.18;41.56;99515.19;5053695;28;19915;-77
2023/08/18 07:58:03;;;;;;;;;;;;;;;28.16;41.46;99511.13;5053594;28;19916;-77
2023/08/18 08:00:30;;;;;;;;;;;;;;;28.21;41.56;99518.41;5051744;28;20387;-76
2023/08/18 08:02:55;;;;;;;;;;;;;;;28.26;41.75;99511.03;5071394;28;20003;-78
2023/08/18 08:05:21;;;;;;;;;;;;;;;28.31;41.79;99510.16;5046534;28;19913;-78
2023/08/18 08:07:46;;;;;;;;;;;;;;;28.35;41.81;99501.13;5069388;28;19916;-78
2023/08/18 08:10:12;;;;;;;;;;;;;;;28.38;41.80;99492.38;5067355;28;19935;-76
2023/08/18 08:12:38;;;;;;;;;;;;;;;28.50;41.83;99488.41;5067799;28;20338;-79
2023/08/18 08:15:04;;;;;;;;;;;;;;;28.61;41.12;99482.50;5072817;28;19913;-77
2023/08/18 08:17:30;;;;;;;;;;;;;;;28.72;40.90;99485.84;5036557;28;19979;-78
2023/08/18 08:19:56;;;;;;;;;;;;;;;28.81;41.14;99484.03;5053456;28;20406;-78
2023/08/18 08:22:22;;;;;;;;;;;;;;;28.98;41.18;99476.13;5053290;28;20305;-77
2023/08/18 08:24:48;;;;;;;;;;;;;;;29.13;40.58;99468.81;5057714;28;19912;-78
2023/08/18 08:27:15;;;;;;;;;;;;;;;29.21;40.59;99487.94;5071894;28;19928;-76
2023/08/18 08:29:40;;;;;;;;;;;;;;;29.26;40.16;99490.56;5070838;28;20386;-78
2023/08/18 08:32:06;;;;;;;;;;;;;;;29.48;40.38;99487.16;5068641;28;19916;-78
2023/08/18 08:34:31;;;;;;;;;;;;;;;29.67;39.47;99485.09;5069835;28;19913;-77
2023/08/18 08:36:56;;;;;;;;;;;;;;;29.87;38.94;99483.06;5071817;28;19916;-76
2023/08/18 08:39:22;;;;;;;;;;;;;;;30.07;39.21;99485.34;5072857;28;19919;-78
2023/08/18 08:41:47;;;;;;;;;;;;;;;30.26;38.93;99490.63;5042713;28;19919;-77
2023/08/18 08:44:13;;;;;;;;;;;;;;;30.42;38.81;99486.41;5068644;28;19916;-77
2023/08/18 08:46:40;;;;;;;;;;;;;;;30.62;38.85;99488.69;5061483;28;19923;-77
2023/08/18 08:49:07;;;;;;;;;;;;;;;30.79;37.75;99487.97;5069443;28;20014;-78
2023/08/18 08:51:35;;;;;;;;;;;;;;;30.97;37.87;99478.75;5034841;28;19917;-78
2023/08/18 08:54:02;;;;;;;;;;;;;;;31.12;37.91;99471.25;5048766;28;19934;-76
2023/08/18 08:56:30;;;;;;;;;;;;;;;31.13;36.65;99467.41;5052525;28;19970;-76
2023/08/18 08:58:56;;;;;;;;;;;;;;;31.22;36.96;99477.28;5042999;28;19912;-78
2023/08/18 09:01:22;;;;;;;;;;;;;;;31.37;37.05;99467.88;5053329;28;19927;-78
2023/08/18 09:03:48;;;;;;;;;;;;;;;31.57;37.15;99475.44;5071176;28;19927;-78
2023/08/18 09:06:13;;;;;;;;;;;;;;;31.72;36.75;99478.88;5052043;28;19912;-76
2023/08/18 09:08:39;;;;;;;;;;;;;;;31.75;36.52;99479.03;5059528;28;19948;-77
2023/08/18 09:11:04;;;;;;;;;;;;;;;31.87;36.64;99476.47;5052190;28;19921;-79
2023/08/18 09:13:29;;;;;;;;;;;;;;;32.05;36.01;99480.03;5052324;28;19920;-78
2023/08/18 09:15:56;;;;;;;;;;;;;;;32.25;34.81;99481.34;5051926;28;19913;-77
2023/08/18 09:18:21;;;;;;;;;;;;;;;32.31;35.32;99474.56;5034431;28;20012;-76
2023/08/18 09:20:46;;;;;;;;;;;;;;;32.52;35.86;99475.50;5052701;28;19960;-78
2023/08/18 09:23:12;;;;;;;;;;;;;;;32.72;34.58;99465.03;5037313;28;19971;-78
2023/08/18 09:25:37;;;;;;;;;;;;;;;32.90;35.03;99455.66;5044956;28;19974;-77
2023/08/18 09:28:03;;;;;;;;;;;;;;;32.98;34.15;99459.47;5068039;28;19921;-78
2023/08/18 09:30:29;;;;;;;;;;;;;;;33.12;35.04;99454.59;5053942;28;19921;-78
2023/08/18 09:32:54;;;;;;;;;;;;;;;33.33;33.78;99460.13;5052995;28;20004;-78
2023/08/18 09:35:20;;;;;;;;;;;;;;;33.45;34.60;99450.09;5055801;28;19917;-78
2023/08/18 09:37:53;;;;;;;;;;;;;;;33.62;33.06;99438.22;5070911;28;20442;-78
2023/08/18 09:40:18;;;;;;;;;;;;;;;33.64;34.04;99449.66;5060226;28;20312;-78
2023/08/18 09:42:44;;;;;;;;;;;;;;;33.84;33.37;99439.84;5065328;28;19916;-78
2023/08/18 09:45:09;;;;;;;;;;;;;;;33.95;33.27;99443.78;5051945;28;19931;-78
2023/08/18 09:47:37;;;;;;;;;;;;;;;34.03;33.24;99431.94;5056368;28;19938;-78
2023/08/18 09:50:04;;;;;;;;;;;;;;;34.18;33.32;99435.19;5067705;28;19924;-78
2023/08/18 09:52:33;;;;;;;;;;;;;;;34.25;31.17;99427.25;5065986;28;19920;-77
2023/08/18 09:55:04;;;;;;;;;;;;;;;34.41;31.88;99425.50;5055977;28;19928;-77
2023/08/18 09:57:32;;;;;;;;;;;;;;;34.62;32.55;99426.22;5064876;28;19928;-78
2023/08/18 09:59:59;;;;;;;;;;;;;;;34.73;30.69;99426.56;5067303;28;19932;-78
2023/08/18 10:02:44;;;;;;;;;;;;;;;34.90;31.70;99431.06;5067536;28;19924;-78
2023/08/18 10:05:09;;;;;;;;;;;;;;;34.98;29.99;99421.94;5071803;28;19919;-77
2023/08/18 10:07:34;;;;;;;;;;;;;;;34.96;30.43;99413.25;5071501;28;19912;-77
2023/08/18 10:10:00;;;;;;;;;;;;;;;35.07;30.47;99419.88;5071622;28;20393;-76
2023/08/18 10:12:25;;;;;;;;;;;;;;;35.23;31.17;99426.28;5071674;28;19913;-79
2023/08/18 10:14:52;;;;;;;;;;;;;;;35.24;29.74;99416.91;5068022;28;20375;-76
2023/08/18 10:17:21;;;;;;;;;;;;;;;35.35;30.66;99414.50;5051540;28;19923;-76
2023/08/18 10:19:52;;;;;;;;;;;;;;;35.59;30.34;99424.63;5042336;28;19917;-77
2023/08/18 10:22:18;;;;;;;;;;;;;;;35.79;30.08;99411.91;5049800;28;19917;-78
2023/08/18 10:24:47;;;;;;;;;;;;;;;36.04;28.44;99412.63;5063976;28;19974;-76
2023/08/18 10:27:13;;;;;;;;;;;;;;;36.11;27.42;99412.81;5066136;28;20435;-77
2023/08/18 10:29:41;;;;;;;;;;;;;;;36.15;28.80;99411.75;5065268;28;19932;-77
2023/08/18 10:32:08;;;;;;;;;;;;;;;36.34;29.12;99405.63;5072975;28;19916;-78
2023/08/18 10:34:33;;;;;;;;;;;;;;;36.57;29.11;99409.38;5069783;28;19966;-77
2023/08/18 10:36:58;;;;;;;;;;;;;;;36.57;27.62;99414.88;5073600;28;19952;-77
2023/08/18 10:39:25;;;;;;;;;;;;;;;36.64;26.39;99407.97;5078214;28;19991;-77
2023/08/18 10:42:03;;;;;;;;;;;;;;;36.65;26.36;99404.06;5055244;28;19926;-76
2023/08/18 10:44:28;;;;;;;;;;;;;;;36.68;26.84;99397.84;5071668;28;20401;-77
2023/08/18 10:46:54;;;;;;;;;;;;;;;36.83;26.88;99384.09;5067469;28;20019;-77
2023/08/18 10:49:19;;;;;;;;;;;;;;;36.61;23.95;99395.72;5055086;28;19917;-77
2023/08/18 10:51:44;;;;;;;;;;;;;;;36.08;27.50;99399.78;5056370;28;19917;-77
2023/08/18 10:54:09;;;;;;;;;;;;;;;35.60;24.83;99390.53;5063648;28;20328;-77
2023/08/18 10:56:35;;;;;;;;;;;;;;;35.73;26.81;99385.81;5056886;28;19912;-77
2023/08/18 10:59:00;;;;;;;;;;;;;;;36.13;26.06;99396.78;5072850;28;20469;-77
2023/08/18 11:01:26;;;;;;;;;;;;;;;36.25;25.78;99402.19;5070235;28;19920;-77
2023/08/18 11:03:51;;;;;;;;;;;;;;;36.58;24.94;99388.19;5056043;28;20314;-78
2023/08/18 11:06:17;;;;;;;;;;;;;;;36.87;25.16;99381.44;5057219;28;19926;-77
2023/08/18 11:08:43;;;;;;;;;;;;;;;37.16;23.74;99386.47;5055498;28;19920;-77
2023/08/18 11:11:09;;;;;;;;;;;;;;;37.37;24.38;99380.66;5051598;28;19928;-76
2023/08/18 11:13:35;;;;;;;;;;;;;;;37.22;21.77;99374.00;5055553;28;19920;-76
2023/08/18 11:16:00;;;;;;;;;;;;;;;37.16;23.68;99369.13;5037589;28;19917;-78
2023/08/18 11:18:25;;;;;;;;;;;;;;;37.30;22.53;99365.94;5072476;28;19966;-77
2023/08/18 11:20:51;;;;;;;;;;;;;;;37.29;23.70;99373.41;5073703;28;19912;-78
2023/08/18 11:23:17;;;;;;;;;;;;;;;37.43;22.58;99370.94;5071862;28;19924;-77
2023/08/18 11:25:42;;;;;;;;;;;;;;;37.54;21.12;99384.94;5049607;28;20437;-77
2023/08/18 11:28:08;;;;;;;;;;;;;;;37.69;22.34;99375.00;5074337;28;19912;-77
2023/08/18 11:30:34;;;;;;;;;;;;;;;37.62;23.47;99372.91;5074127;28;19916;-77
2023/08/18 11:32:59;;;;;;;;;;;;;;;37.47;21.88;99368.28;5074192;28;20324;-76
2023/08/18 11:35:25;;;;;;;;;;;;;;;37.51;22.51;99374.66;5058453;28;19917;-76
2023/08/18 11:37:52;;;;;;;;;;;;;;;37.35;21.59;99373.91;5054716;28;19967;-79
2023/08/18 11:40:18;;;;;;;;;;;;;;;37.06;20.49;99355.91;5047053;28;19943;-77
2023/08/18 11:42:45;;;;;;;;;;;;;;;36.75;21.80;99354.78;5056296;28;20386;-77
2023/08/18 11:45:11;;;;;;;;;;;;;;;36.28;20.76;99363.00;5073889;28;19935;-76
2023/08/18 11:47:37;;;;;;;;;;;;;;;36.22;22.52;99356.16;5073953;28;20306;-78
2023/08/18 11:50:03;;;;;;;;;;;;;;;36.32;23.51;99358.44;5073777;28;19923;-76
2023/08/18 11:52:38;;;;;;;;;;;;;;;36.66;23.30;99353.38;5058616;28;19916;-77
2023/08/18 11:55:04;;;;;;;;;;;;;;;37.07;22.79;99352.81;5053648;28;19923;-77
2023/08/18 11:57:29;;;;;;;;;;;;;;;37.32;23.28;99347.91;5053686;28;19913;-78
2023/08/18 11:59:54;;;;;;;;;;;;;;;37.37;22.49;99333.84;5035733;28;20515;-77
2023/08/18 12:02:22;;;;;;;;;;;;;;;37.05;23.68;99346.06;5053778;28;19920;-77
2023/08/18 12:04:47;;;;;;;;;;;;;;;36.63;23.30;99356.84;5054697;28;19917;-79
2023/08/18 12:07:13;;;;;;;;;;;;;;;36.73;22.76;99359.84;5035586;28;19914;-76
2023/08/18 12:09:38;;;;;;;;;;;;;;;36.87;21.92;99356.66;5046327;28;19921;-78
2023/08/18 12:12:11;;;;;;;;;;;;;;;36.62;22.53;99364.31;5050846;28;20010;-78
2023/08/18 12:14:37;;;;;;;;;;;;;;;36.33;22.98;99356.47;5055298;28;20304;-78
2023/08/18 12:17:02;;;;;;;;;;;;;;;36.08;22.97;99356.59;5073287;28;19912;-77
2023/08/18 12:19:27;;;;;;;;;;;;;;;36.36;24.08;99358.50;5071070;28;20364;-76
2023/08/18 12:21:52;;;;;;;;;;;;;;;36.82;23.07;99368.75;5065841;28;20013;-76
2023/08/18 12:24:18;;;;;;;;;;;;;;;37.04;23.04;99358.22;5053388;28;20290;-75
2023/08/18 12:26:43;;;;;;;;;;;;;;;37.37;21.50;99353.13;5068835;28;20458;-77
2023/08/18 12:29:08;;;;;;;;;;;;;;;37.56;23.01;99352.31;5067994;28;19999;-76
2023/08/18 12:31:33;;;;;;;;;;;;;;;37.69;22.00;99342.78;5072623;28;19970;-78
2023/08/18 12:34:05;;;;;;;;;;;;;;;37.72;22.14;99341.25;5072914;28;19916;-77
2023/08/18 12:36:31;;;;;;;;;;;;;;;38.00;22.64;99343.78;5072866;28;19963;-78
2023/08/18 12:38:56;;;;;;;;;;;;;;;37.98;22.17;99341.38;5056870;28;19948;-77
2023/08/18 12:41:24;;;;;;;;;;;;;;;38.08;22.64;99351.00;5052794;28;19916;-76